Historyczne dane pomiarowe

Dodano dane terminowe – wersja testowa.

Dane z okresu 1951-2019

Wersja bazy: 1.34 [2019-03-16, lista zmian], aktualizacja planowana na 2019-04-15

Dane meteo z obszaru Polski uzyskane na podstawie danych udostępnionych przez Instytut Meteorologii i Gospodarki Wodnej – Państwowy Instytut Badawczy.

 

Wybierz Datę:    

       

TemperaturaWilgotnośćZachmurzenieWiatrCiśnienieWidzialnośćZjawiska
 Data    tng td wb rh cc ccl cl cm ch dir g1 g2 mslp ppp      
1999-07-15 00:00:00 14.5--- 12.3 13.286wxwxwx4wx--1008.4 985.6 0.0---wx
1999-07-15 01:00:00 14.1--- 12.2 13.088wxwxwx3wx--1008.7 985.9----wx
1999-07-15 02:00:00 14.0--- 12.6 13.291wxwxwx3wx--1008.9 986.1----wx
1999-07-15 03:00:00 13.0--- 11.8 12.392wxwxwxwx3wx--1009.5 986.6----wx
1999-07-15 04:00:00 13.3--- 11.2 12.187wxwxwx3wx--1010.1 987.2----wx
1999-07-15 05:00:00 13.5--- 11.0 12.185wxwxwxwxwx3wx--1010.5 987.6----wx
1999-07-15 06:00:00 14.1--- 10.9 12.381wxwxwxwxwx3wx--1010.9 988.0 0.0---wx
1999-07-15 07:00:00 15.5--- 11.5 13.277wxwxwxwx3wx--1010.8 988.1----wx
1999-07-15 08:00:00 16.5--- 9.7 12.764wxwxwxwx3wx--1011.0 988.3----wx
1999-07-15 09:00:00 17.9--- 9.2 13.057wxwxwxwx4wx--1010.9 988.3----wx
1999-07-15 10:00:00 18.5--- 9.5 13.456wxwxwx4wx--1011.0 988.5----wx
1999-07-15 11:00:00 17.0--- 10.7 13.467wxwxwxwx4wx--1011.4 988.8----wx
1999-07-15 12:00:00 17.0--- 11.1 13.668wxwxwxwx2wx--1011.7 989.1 0.2---wxw1
1999-07-15 13:00:00 18.3--- 11.7 14.465wxwxwxwx3wx--1011.5 989.0----wx
1999-07-15 14:00:00 17.9--- 11.6 14.267wxwxwxwx4wx--1011.7 989.1----wx
1999-07-15 15:00:00 17.9--- 12.7 14.872wxwxwxwx4wx--1012.0 989.4----wxw1
1999-07-15 16:00:00 18.6--- 11.6 14.564wxwxwxwx4wx--1012.0 989.5----wx
1999-07-15 17:00:00 17.7--- 12.1 14.470wxwxwxwx3wx--1012.3 989.7----wx
1999-07-15 18:00:00 16.8--- 12.4 14.275wxwxwxwx4wx--1012.9 990.2 0.0---wxw1
1999-07-15 19:00:00 16.2--- 13.0 14.381wxwxwxwx2wx--1013.5 990.8----wxw1
1999-07-15 20:00:00 15.8--- 13.1 14.284wxwxwxwx2wx--1013.8 991.0----wx
1999-07-15 21:00:00 15.1--- 12.9 13.887wxwxwx2wx--1013.9 991.1----wxw1
1999-07-15 22:00:00 14.2--- 12.1 13.087wxwxwx2wx--1014.4 991.5----wx
1999-07-15 23:00:00 13.5--- 11.4 12.387wxwxwx2wx--1014.8 991.8----wx

 

Źródłem pochodzenia danych jest Instytut Meteorologii i Gospodarki Wodnej – Państwowy Instytut Badawczy. Dane Instytutu Meteorologii i Gospodarki Wodnej – Państwowego Instytutu Badawczego zostały przetworzone.

Dane źródłowe można odnaleźć na stronie https://dane.imgw.pl